createdAt,value
2023-04-25T00:01:48.483Z,6.48
2023-04-25T00:04:16.157Z,6.44
2023-04-25T00:06:43.782Z,6.43
2023-04-25T00:09:12.391Z,6.41
2023-04-25T00:11:41.634Z,6.40
2023-04-25T00:14:08.886Z,6.39
2023-04-25T00:16:36.673Z,6.40
2023-04-25T00:19:06.803Z,6.40
2023-04-25T00:21:34.553Z,6.39
2023-04-25T00:24:02.101Z,6.38
2023-04-25T00:26:29.429Z,6.38
2023-04-25T00:28:56.789Z,6.35
2023-04-25T00:31:24.145Z,6.32
2023-04-25T00:33:51.826Z,6.30
2023-04-25T00:36:19.686Z,6.28
2023-04-25T00:38:46.884Z,6.28
2023-04-25T00:41:14.756Z,6.28
2023-04-25T00:43:43.048Z,6.27
2023-04-25T00:46:10.745Z,6.24
2023-04-25T00:48:38.148Z,6.25
2023-04-25T00:51:06.048Z,6.23
2023-04-25T00:53:34.579Z,6.21
2023-04-25T00:56:01.855Z,6.19
2023-04-25T00:58:29.256Z,6.18
2023-04-25T01:00:57.337Z,6.15
2023-04-25T01:03:25.493Z,6.13
2023-04-25T01:05:53.175Z,6.13
2023-04-25T01:08:25.317Z,6.12
2023-04-25T01:10:52.770Z,6.08
2023-04-25T01:13:20.979Z,6.04
2023-04-25T01:15:49.208Z,6.01
2023-04-25T01:18:17.754Z,5.97
2023-04-25T01:20:46.350Z,5.95
2023-04-25T01:23:14.589Z,5.93
2023-04-25T01:25:42.851Z,5.90
2023-04-25T01:28:10.638Z,5.90
2023-04-25T01:30:38.656Z,5.89
2023-04-25T01:33:07.533Z,5.86
2023-04-25T01:35:35.099Z,5.84
2023-04-25T01:38:02.920Z,5.80
2023-04-25T01:40:31.329Z,5.80
2023-04-25T01:42:58.613Z,5.81
2023-04-25T01:45:26.583Z,5.81
2023-04-25T01:47:54.852Z,5.79
2023-04-25T01:50:22.270Z,5.75
2023-04-25T01:52:50.679Z,5.75
2023-04-25T01:55:18.471Z,5.74
2023-04-25T01:58:04.211Z,5.73
2023-04-25T02:00:50.989Z,5.72
2023-04-25T02:03:18.837Z,5.71
2023-04-25T02:05:46.697Z,5.70
2023-04-25T02:08:15.425Z,5.69
2023-04-25T02:10:42.962Z,5.66
2023-04-25T02:13:19.116Z,5.62
2023-04-25T02:16:15.164Z,5.57
2023-04-25T02:18:42.586Z,5.51
2023-04-25T02:21:10.000Z,5.44
2023-04-25T02:23:37.507Z,5.38
2023-04-25T02:26:04.859Z,5.31
2023-04-25T02:28:32.358Z,5.28
2023-04-25T02:31:01.896Z,5.26
2023-04-25T02:33:29.237Z,5.24
2023-04-25T02:35:58.747Z,5.21
2023-04-25T02:38:26.332Z,5.18
2023-04-25T02:40:53.783Z,5.16
2023-04-25T02:43:21.736Z,5.17
2023-04-25T02:45:48.989Z,5.12
2023-04-25T02:48:16.312Z,5.03
2023-04-25T02:50:43.667Z,4.94
2023-04-25T02:53:10.937Z,4.89
2023-04-25T02:55:45.573Z,4.89
2023-04-25T02:58:12.866Z,4.92
2023-04-25T03:00:47.303Z,4.95
2023-04-25T03:03:16.108Z,4.98
2023-04-25T03:05:43.554Z,5.00
2023-04-25T03:08:10.982Z,5.04
2023-04-25T03:10:39.956Z,5.04
2023-04-25T03:13:10.671Z,5.02
2023-04-25T03:15:40.874Z,4.99
2023-04-25T03:18:08.296Z,4.97
2023-04-25T03:20:35.779Z,4.93
2023-04-25T03:23:04.866Z,4.92
2023-04-25T03:25:32.767Z,4.95
2023-04-25T03:28:00.123Z,4.99
2023-04-25T03:30:27.492Z,4.98
2023-04-25T03:32:54.858Z,4.96
2023-04-25T03:35:22.233Z,4.92
2023-04-25T03:37:49.533Z,4.88
2023-04-25T03:40:22.220Z,4.84
2023-04-25T03:43:09.759Z,4.79
2023-04-25T03:45:38.444Z,4.76
2023-04-25T03:48:06.293Z,4.73
2023-04-25T03:50:34.518Z,4.68
2023-04-25T03:53:01.837Z,4.66
2023-04-25T03:55:34.505Z,4.64
2023-04-25T03:58:02.182Z,4.66
2023-04-25T04:00:29.491Z,4.68
2023-04-25T04:02:57.069Z,4.68
2023-04-25T04:05:24.634Z,4.71
2023-04-25T04:07:56.473Z,4.69
2023-04-25T04:10:24.296Z,4.70
2023-04-25T04:12:51.672Z,4.74
2023-04-25T04:15:19.243Z,4.75
2023-04-25T04:17:48.959Z,4.78
2023-04-25T04:20:16.413Z,4.80
2023-04-25T04:22:43.856Z,4.80
2023-04-25T04:25:14.050Z,4.82
2023-04-25T04:28:04.545Z,4.82
2023-04-25T04:30:53.546Z,4.78
2023-04-25T04:33:20.859Z,4.78
2023-04-25T04:35:54.494Z,4.75
2023-04-25T04:38:22.958Z,4.75
2023-04-25T04:40:54.762Z,4.74
2023-04-25T04:43:38.155Z,4.76
2023-04-25T04:46:25.838Z,4.79
2023-04-25T04:49:13.515Z,4.80
2023-04-25T04:52:07.422Z,4.83
2023-04-25T04:54:52.862Z,4.87
2023-04-25T04:57:36.221Z,4.88
2023-04-25T05:00:17.070Z,4.88
2023-04-25T05:02:45.176Z,4.86
2023-04-25T05:05:41.004Z,4.87
2023-04-25T05:08:26.539Z,4.89
2023-04-25T05:11:12.195Z,4.95
2023-04-25T05:14:18.042Z,5.04
2023-04-25T05:16:59.490Z,5.13
2023-04-25T05:19:47.166Z,5.22
2023-04-25T05:22:25.424Z,5.23
2023-04-25T05:25:28.654Z,5.16
2023-04-25T05:28:09.236Z,5.15
2023-04-25T05:30:42.449Z,5.17
2023-04-25T05:33:17.611Z,5.24
2023-04-25T05:35:46.376Z,5.27
2023-04-25T05:38:13.739Z,5.35
2023-04-25T05:41:01.643Z,5.43
2023-04-25T05:43:40.401Z,5.51
2023-04-25T05:46:21.661Z,5.66
2023-04-25T05:49:08.053Z,5.73
2023-04-25T05:52:13.645Z,5.79
2023-04-25T05:54:41.022Z,5.81
2023-04-25T05:57:08.486Z,5.82
2023-04-25T05:59:36.106Z,5.81
2023-04-25T06:02:03.848Z,5.88
2023-04-25T06:04:35.826Z,6.07
2023-04-25T06:07:03.479Z,6.41
2023-04-25T06:09:31.134Z,6.61
2023-04-25T06:11:59.482Z,6.69
2023-04-25T06:14:28.958Z,6.70
2023-04-25T06:16:57.185Z,6.76
2023-04-25T06:19:24.453Z,6.88
2023-04-25T06:21:51.860Z,6.98
2023-04-25T06:24:20.768Z,7.07
2023-04-25T06:26:48.797Z,7.12
2023-04-25T06:29:16.502Z,7.17
2023-04-25T06:31:44.253Z,7.21
2023-04-25T06:34:11.817Z,7.36
2023-04-25T06:36:42.520Z,7.57
2023-04-25T06:39:12.983Z,7.80
2023-04-25T06:41:42.332Z,7.92
2023-04-25T06:44:27.161Z,8.08
2023-04-25T06:46:54.434Z,8.16
2023-04-25T06:49:21.892Z,8.22
2023-04-25T06:51:49.205Z,8.17
2023-04-25T06:54:16.642Z,8.15
2023-04-25T06:56:54.716Z,8.02
2023-04-25T06:59:22.392Z,7.86
2023-04-25T07:01:49.648Z,7.69
2023-04-25T07:04:20.560Z,7.48
2023-04-25T07:06:55.816Z,7.34
2023-04-25T07:09:49.609Z,7.21
2023-04-25T07:12:16.900Z,7.12
2023-04-25T07:14:45.055Z,6.97
2023-04-25T07:17:12.983Z,6.87
2023-04-25T07:19:41.034Z,6.83
2023-04-25T07:22:09.463Z,6.77
2023-04-25T07:24:40.454Z,6.77
2023-04-25T07:27:08.846Z,6.71
2023-04-25T07:29:56.749Z,6.77
2023-04-25T07:32:24.838Z,6.88
2023-04-25T07:34:52.453Z,7.00
2023-04-25T07:37:22.772Z,7.13
2023-04-25T07:40:02.739Z,7.25
2023-04-25T07:42:30.449Z,7.42
2023-04-25T07:44:58.143Z,7.56
2023-04-25T07:47:25.760Z,7.67
2023-04-25T07:49:54.010Z,7.71
2023-04-25T07:52:22.588Z,7.83
2023-04-25T07:54:54.940Z,7.90
2023-04-25T07:57:30.297Z,8.00
2023-04-25T07:59:58.633Z,8.09
2023-04-25T08:02:29.381Z,8.24
2023-04-25T08:04:57.034Z,8.41
2023-04-25T08:07:24.418Z,8.57
2023-04-25T08:09:56.010Z,8.75
2023-04-25T08:12:27.808Z,8.91
2023-04-25T08:14:55.199Z,8.89
2023-04-25T08:17:24.982Z,8.75
2023-04-25T08:19:53.117Z,8.60
2023-04-25T08:22:27.104Z,8.51
2023-04-25T08:25:07.011Z,8.38
2023-04-25T08:27:34.425Z,8.32
2023-04-25T08:30:04.635Z,8.34
2023-04-25T08:32:32.113Z,8.46
2023-04-25T08:35:18.499Z,8.48
2023-04-25T08:37:46.376Z,8.53
2023-04-25T08:40:16.604Z,8.61
2023-04-25T08:42:57.937Z,8.65
2023-04-25T08:45:28.385Z,8.81
2023-04-25T08:47:58.211Z,8.90
2023-04-25T08:50:27.422Z,9.05
2023-04-25T08:52:56.338Z,9.17
2023-04-25T08:55:27.743Z,9.29
2023-04-25T08:57:59.587Z,9.29
2023-04-25T09:00:27.373Z,9.28
2023-04-25T09:02:56.239Z,9.17
2023-04-25T09:05:24.300Z,9.03
2023-04-25T09:07:54.053Z,9.08
2023-04-25T09:10:21.335Z,9.08
2023-04-25T09:13:18.689Z,9.15
2023-04-25T09:16:11.733Z,9.17
2023-04-25T09:18:49.205Z,9.05
2023-04-25T09:21:17.483Z,8.94
2023-04-25T09:23:49.423Z,8.89
2023-04-25T09:26:20.043Z,8.85
2023-04-25T09:28:51.249Z,9.01
2023-04-25T09:31:25.658Z,9.24
2023-04-25T09:34:02.859Z,9.34
2023-04-25T09:36:38.244Z,9.23
2023-04-25T09:39:22.476Z,8.98
2023-04-25T09:42:00.910Z,8.85
2023-04-25T09:44:28.301Z,8.88
2023-04-25T09:46:56.440Z,8.91
2023-04-25T09:49:30.342Z,8.93
2023-04-25T09:52:20.957Z,8.96
2023-04-25T09:55:05.236Z,9.10
2023-04-25T09:57:40.802Z,9.24
2023-04-25T10:00:13.300Z,9.24
2023-04-25T10:02:49.232Z,9.26
2023-04-25T10:05:36.892Z,9.31
2023-04-25T10:08:05.643Z,9.33
2023-04-25T10:10:37.278Z,9.40
2023-04-25T10:13:06.247Z,9.45
2023-04-25T10:15:38.305Z,9.42
2023-04-25T10:18:08.167Z,9.42
2023-04-25T10:20:36.005Z,9.43
2023-04-25T10:23:15.891Z,9.28
2023-04-25T10:25:44.260Z,9.11
2023-04-25T10:28:11.558Z,8.95
2023-04-25T10:30:38.792Z,8.87
2023-04-25T10:33:19.664Z,9.03
2023-04-25T10:35:46.979Z,9.25
2023-04-25T10:38:17.295Z,9.48
2023-04-25T10:41:04.970Z,9.60
2023-04-25T10:43:32.248Z,9.62
2023-04-25T10:46:03.493Z,9.64
2023-04-25T10:48:32.132Z,9.72
2023-04-25T10:51:12.991Z,9.81
2023-04-25T10:53:40.328Z,9.75
2023-04-25T10:56:36.902Z,9.73
2023-04-25T10:59:20.309Z,9.69
2023-04-25T11:01:52.848Z,9.63
2023-04-25T11:04:25.507Z,9.69
2023-04-25T11:07:27.203Z,9.63
2023-04-25T11:09:54.619Z,9.52
2023-04-25T11:12:21.947Z,9.46
2023-04-25T11:14:49.300Z,9.35
2023-04-25T11:17:16.576Z,9.35
2023-04-25T11:19:44.046Z,9.42
2023-04-25T11:22:11.952Z,9.33
2023-04-25T11:24:42.198Z,9.36
2023-04-25T11:27:10.410Z,9.38
2023-04-25T11:29:37.893Z,9.36
2023-04-25T11:32:05.439Z,9.38
2023-04-25T11:34:34.344Z,9.23
2023-04-25T11:37:03.587Z,9.30
2023-04-25T11:39:31.609Z,9.53
2023-04-25T11:41:59.878Z,9.67
2023-04-25T11:44:29.468Z,9.78
2023-04-25T11:46:56.801Z,9.70
2023-04-25T11:49:25.879Z,9.57
2023-04-25T11:51:53.522Z,9.24
2023-04-25T11:54:20.835Z,8.92
2023-04-25T11:56:48.302Z,8.68
2023-04-25T11:59:16.049Z,8.58
2023-04-25T12:01:51.041Z,8.59
2023-04-25T12:04:25.959Z,8.55
2023-04-25T12:06:54.948Z,8.43
2023-04-25T12:09:30.134Z,8.25
2023-04-25T12:11:59.518Z,7.99
2023-04-25T12:14:28.527Z,7.89
2023-04-25T12:16:58.844Z,8.01
2023-04-25T12:19:27.335Z,8.18
2023-04-25T12:21:58.725Z,8.43
2023-04-25T12:24:28.767Z,8.67
2023-04-25T12:27:09.940Z,8.93
2023-04-25T12:32:07.388Z,9.31
2023-04-25T12:34:37.089Z,9.30
2023-04-25T12:37:04.683Z,9.19
2023-04-25T12:39:31.928Z,9.18
2023-04-25T12:42:00.189Z,9.32
2023-04-25T12:44:28.193Z,9.55
2023-04-25T12:46:56.046Z,9.66
2023-04-25T12:49:23.583Z,9.71
2023-04-25T12:51:52.554Z,9.70
2023-04-25T12:54:19.957Z,9.80
2023-04-25T12:56:47.406Z,9.85
2023-04-25T12:59:14.640Z,9.84
2023-04-25T13:01:42.140Z,9.75
2023-04-25T13:04:09.636Z,9.62
2023-04-25T13:06:37.258Z,9.25
2023-04-25T13:09:04.852Z,8.76
2023-04-25T13:11:32.423Z,8.34
2023-04-25T13:13:59.794Z,8.23
2023-04-25T13:16:27.187Z,8.14
2023-04-25T13:18:54.675Z,8.18
2023-04-25T13:21:21.952Z,8.34
2023-04-25T13:23:49.517Z,8.47
2023-04-25T13:26:17.613Z,8.64
2023-04-25T13:28:45.138Z,8.73
2023-04-25T13:31:12.557Z,8.82
2023-04-25T13:33:39.870Z,8.80
2023-04-25T13:36:10.266Z,8.88
2023-04-25T13:38:37.699Z,9.04
2023-04-25T13:41:05.013Z,9.15
2023-04-25T13:43:33.194Z,9.24
2023-04-25T13:46:00.510Z,9.28
2023-04-25T13:48:27.789Z,9.34
2023-04-25T13:50:55.015Z,9.39
2023-04-25T13:53:22.332Z,9.38
2023-04-25T13:55:49.676Z,9.41
2023-04-25T13:58:17.074Z,9.46
2023-04-25T14:00:46.961Z,9.32
2023-04-25T14:03:14.355Z,9.19
2023-04-25T14:05:42.020Z,9.04
2023-04-25T14:08:10.593Z,8.92
2023-04-25T14:10:39.296Z,8.86
2023-04-25T14:13:08.319Z,8.81
2023-04-25T14:15:36.820Z,8.89
2023-04-25T14:18:04.277Z,9.06
2023-04-25T14:20:32.673Z,9.23
2023-04-25T14:22:59.903Z,9.32
2023-04-25T14:25:27.400Z,9.34
2023-04-25T14:27:54.643Z,9.32
2023-04-25T14:30:22.784Z,9.45
2023-04-25T14:32:51.153Z,9.45
2023-04-25T14:35:18.732Z,9.48
2023-04-25T14:37:46.142Z,9.60
2023-04-25T14:40:16.237Z,9.62
2023-04-25T14:42:43.581Z,9.67
2023-04-25T14:45:11.144Z,9.65
2023-04-25T14:47:38.560Z,9.60
2023-04-25T14:50:07.337Z,9.62
2023-04-25T14:52:34.625Z,9.69
2023-04-25T14:55:06.106Z,9.67
2023-04-25T14:57:34.403Z,9.58
2023-04-25T15:00:02.804Z,9.45
2023-04-25T15:02:30.226Z,9.31
2023-04-25T15:04:57.685Z,9.17
2023-04-25T15:07:25.685Z,9.11
2023-04-25T15:09:54.433Z,9.07
2023-04-25T15:12:21.746Z,9.06
2023-04-25T15:14:48.999Z,9.11
2023-04-25T15:17:16.540Z,9.20
2023-04-25T15:19:43.918Z,9.17
2023-04-25T15:22:11.748Z,9.18
2023-04-25T15:24:39.196Z,9.21
2023-04-25T15:27:07.082Z,9.08
2023-04-25T15:29:34.501Z,8.98
2023-04-25T15:32:02.066Z,8.89
2023-04-25T15:34:29.378Z,8.83
2023-04-25T15:36:57.543Z,8.83
2023-04-25T15:39:24.901Z,8.76
2023-04-25T15:41:52.648Z,8.71
2023-04-25T15:44:20.421Z,8.65
2023-04-25T15:46:49.045Z,8.57
2023-04-25T15:49:16.853Z,8.45
2023-04-25T15:51:45.024Z,8.37
2023-04-25T15:54:12.397Z,8.37
2023-04-25T15:56:39.965Z,8.41
2023-04-25T15:59:07.594Z,8.49
2023-04-25T16:01:36.795Z,8.60
2023-04-25T16:04:04.214Z,8.71
2023-04-25T16:06:33.384Z,8.68
2023-04-25T16:09:00.635Z,8.67
2023-04-25T16:11:27.995Z,8.71
2023-04-25T16:13:55.269Z,8.74
2023-04-25T16:16:22.631Z,8.73
2023-04-25T16:18:50.345Z,8.68
2023-04-25T16:21:17.645Z,8.60
2023-04-25T16:23:45.239Z,8.54
2023-04-25T16:26:14.008Z,8.52
2023-04-25T16:28:44.105Z,8.49
2023-04-25T16:31:11.607Z,8.42
2023-04-25T16:33:39.000Z,8.36
2023-04-25T16:36:07.232Z,8.27
2023-04-25T16:38:34.760Z,8.16
2023-04-25T16:41:02.040Z,8.05
2023-04-25T16:43:29.411Z,7.94
2023-04-25T16:45:56.675Z,7.91
2023-04-25T16:48:24.628Z,7.88
2023-04-25T16:50:52.824Z,7.91
2023-04-25T16:53:22.236Z,7.92
2023-04-25T16:55:50.011Z,7.91
2023-04-25T16:58:17.639Z,7.85
2023-04-25T17:00:45.506Z,7.79
2023-04-25T17:03:13.457Z,7.73
2023-04-25T17:05:40.865Z,7.68
2023-04-25T17:08:08.361Z,7.64
2023-04-25T17:10:35.924Z,7.56
2023-04-25T17:13:03.441Z,7.50
2023-04-25T17:18:00.447Z,7.38
2023-04-25T17:20:27.792Z,7.33
2023-04-25T17:22:55.013Z,7.24
2023-04-25T17:25:22.558Z,7.14
2023-04-25T17:27:49.780Z,6.91
2023-04-25T17:30:17.383Z,6.63
2023-04-25T17:32:44.728Z,6.43
2023-04-25T17:35:12.090Z,6.31
2023-04-25T17:37:40.826Z,6.29
2023-04-25T17:40:12.089Z,6.29
2023-04-25T17:42:40.552Z,6.30
2023-04-25T17:45:08.417Z,6.31
2023-04-25T17:47:35.758Z,6.32
2023-04-25T17:50:04.657Z,6.34
2023-04-25T17:52:40.681Z,6.34
2023-04-25T17:55:08.905Z,6.33
2023-04-25T17:57:36.610Z,6.33
2023-04-25T18:00:07.791Z,6.31
2023-04-25T18:02:40.607Z,6.31
2023-04-25T18:05:11.287Z,6.30
2023-04-25T18:07:38.580Z,6.27
2023-04-25T18:10:06.810Z,6.23
2023-04-25T18:12:34.419Z,6.22
2023-04-25T18:15:02.098Z,6.20
2023-04-25T18:17:29.461Z,6.19
2023-04-25T18:19:56.776Z,6.18
2023-04-25T18:22:23.980Z,6.14
2023-04-25T18:24:51.427Z,6.11
2023-04-25T18:27:20.942Z,6.07
2023-04-25T18:29:48.171Z,6.03
2023-04-25T18:32:15.511Z,6.00
2023-04-25T18:34:45.317Z,5.97
2023-04-25T18:37:14.272Z,5.93
2023-04-25T18:39:41.807Z,5.91
2023-04-25T18:42:09.103Z,5.90
2023-04-25T18:44:42.682Z,5.91
2023-04-25T18:47:10.849Z,5.90
2023-04-25T18:49:38.809Z,5.88
2023-04-25T18:52:11.819Z,5.87
2023-04-25T18:54:39.549Z,5.84
2023-04-25T18:57:06.810Z,5.81
2023-04-25T18:59:34.088Z,5.78
2023-04-25T19:02:05.660Z,5.74
2023-04-25T19:04:33.348Z,5.72
2023-04-25T19:07:00.971Z,5.65
2023-04-25T19:09:28.269Z,5.61
2023-04-25T19:11:55.813Z,5.54
2023-04-25T19:14:23.236Z,5.50
2023-04-25T19:16:50.547Z,5.46
2023-04-25T19:19:17.781Z,5.41
2023-04-25T19:21:45.061Z,5.36
2023-04-25T19:24:12.281Z,5.30
2023-04-25T19:26:39.872Z,5.28
2023-04-25T19:29:08.176Z,5.25
2023-04-25T19:31:37.465Z,5.21
2023-04-25T19:34:06.183Z,5.17
2023-04-25T19:36:34.533Z,5.16
2023-04-25T19:39:05.514Z,5.15
2023-04-25T19:41:38.247Z,5.11
2023-04-25T19:44:08.402Z,5.08
2023-04-25T19:46:37.251Z,5.06
2023-04-25T19:49:07.845Z,5.03
2023-04-25T19:51:36.616Z,5.03
2023-04-25T19:54:04.373Z,5.01
2023-04-25T19:56:32.644Z,4.99
2023-04-25T19:58:59.889Z,4.99
2023-04-25T20:01:27.201Z,4.97
2023-04-25T20:03:54.775Z,4.94
2023-04-25T20:06:22.533Z,4.91
2023-04-25T20:08:53.147Z,4.84
2023-04-25T20:11:21.586Z,4.80
2023-04-25T20:13:49.074Z,4.74
2023-04-25T20:16:20.164Z,4.69
2023-04-25T20:18:48.810Z,4.65
2023-04-25T20:21:17.027Z,4.63
2023-04-25T20:23:44.641Z,4.59
2023-04-25T20:26:12.903Z,4.58
2023-04-25T20:28:42.080Z,4.56
2023-04-25T20:31:10.899Z,4.53
2023-04-25T20:33:38.806Z,4.47
2023-04-25T20:36:06.283Z,4.47
2023-04-25T20:38:33.756Z,4.45
2023-04-25T20:41:01.211Z,4.42
2023-04-25T20:43:29.276Z,4.40
2023-04-25T20:45:57.346Z,4.34
2023-04-25T20:48:24.581Z,4.32
2023-04-25T20:50:52.470Z,4.30
2023-04-25T20:53:20.261Z,4.31
2023-04-25T20:55:48.774Z,4.29
2023-04-25T20:58:16.296Z,4.27
2023-04-25T21:00:43.953Z,4.26
2023-04-25T21:03:12.013Z,4.24
2023-04-25T21:05:39.602Z,4.22
2023-04-25T21:08:06.966Z,4.21
2023-04-25T21:10:36.172Z,4.19
2023-04-25T21:13:05.092Z,4.16
2023-04-25T21:15:32.332Z,4.15
2023-04-25T21:17:59.774Z,4.16
2023-04-25T21:20:27.106Z,4.14
2023-04-25T21:22:54.588Z,4.15
2023-04-25T21:25:29.330Z,4.17
2023-04-25T21:27:57.867Z,4.19
2023-04-25T21:30:25.924Z,4.20
2023-04-25T21:32:53.605Z,4.20
2023-04-25T21:35:22.586Z,4.22
2023-04-25T21:37:50.623Z,4.22
2023-04-25T21:40:18.512Z,4.22
2023-04-25T21:42:49.923Z,4.22
2023-04-25T21:45:18.451Z,4.23
2023-04-25T21:47:47.722Z,4.24
2023-04-25T21:50:15.510Z,4.26
2023-04-25T21:52:42.766Z,4.26
2023-04-25T21:55:10.879Z,4.27
2023-04-25T21:57:38.059Z,4.30
2023-04-25T22:00:20.306Z,4.33
2023-04-25T22:02:55.532Z,4.32
2023-04-25T22:05:26.540Z,4.28
2023-04-25T22:07:57.014Z,4.26
2023-04-25T22:10:25.217Z,4.26
2023-04-25T22:12:52.958Z,4.30
2023-04-25T22:15:24.152Z,4.33
2023-04-25T22:17:52.498Z,4.37
2023-04-25T22:20:22.815Z,4.38
2023-04-25T22:22:50.415Z,4.39
2023-04-25T22:25:18.028Z,4.38
2023-04-25T22:27:45.292Z,4.39
2023-04-25T22:30:15.407Z,4.35
2023-04-25T22:32:43.446Z,4.33
2023-04-25T22:35:11.694Z,4.26
2023-04-25T22:37:39.148Z,4.23
2023-04-25T22:40:07.245Z,4.22
2023-04-25T22:42:42.179Z,4.18
2023-04-25T22:45:10.827Z,4.15
2023-04-25T22:47:39.385Z,4.16
2023-04-25T22:50:12.505Z,4.15
2023-04-25T22:52:39.812Z,4.15
2023-04-25T22:55:07.299Z,4.10
2023-04-25T22:57:37.546Z,4.10
2023-04-25T23:00:10.812Z,4.07
2023-04-25T23:02:39.875Z,4.04
2023-04-25T23:05:08.013Z,4.04
2023-04-25T23:07:35.320Z,4.02
2023-04-25T23:10:02.632Z,3.96
2023-04-25T23:12:29.827Z,3.90
2023-04-25T23:14:57.330Z,3.86
2023-04-25T23:17:24.542Z,3.80
2023-04-25T23:19:51.728Z,3.72
2023-04-25T23:22:19.287Z,3.65
2023-04-25T23:24:46.582Z,3.57
2023-04-25T23:27:13.907Z,3.53
2023-04-25T23:29:41.388Z,3.44
2023-04-25T23:32:12.671Z,3.39
2023-04-25T23:34:39.922Z,3.35
2023-04-25T23:37:07.195Z,3.32
2023-04-25T23:39:34.643Z,3.31
2023-04-25T23:42:01.862Z,3.31
2023-04-25T23:44:29.055Z,3.31
2023-04-25T23:46:56.285Z,3.31
2023-04-25T23:49:23.537Z,3.32
2023-04-25T23:51:50.790Z,3.32
2023-04-25T23:54:17.961Z,3.32
2023-04-25T23:56:45.262Z,3.32
2023-04-25T23:59:12.523Z,3.32
